Главная страница
METAR-TAF:

METAR-TAF

Аэропорты :

Аэропорт имени М. Р. Штефаника

Братислава, Словакия

широта: 48-12N, долгота: 017-12E, высота над уровнем моря: 133 м

Текущие метеонаблюдения

Эта сводка был подготовлена 15 минут назад, в 04:30 UTC
Ветер 2 Узел переменных направлений
Температура 20°C
Влажность 73%
Давление 1017 hPa
Видимость 10 км и более
Нет облачности ниже 1500 м, и нет кучево-дождевой облачности

METAR: LZIB 210430Z VRB02KT CAVOK 20/15 Q1017 NOSIG

Время: 06:45 (04:45 UTC)

Прогноз

Эта сводка был подготовлена 5 часа и 45 минут назад, в 23:00 UTC
Прогноз действительный с 21-го 00 UTC до 22-го 00 UTC
Ветер 5 Узел от западный
Видимость 10 км и более
Нет облачности ниже 1500 м, и нет кучево-дождевой облачности
изменения
С 21-го 08 UTC до 21-го 10 UTC
Ветер 6 Узел от северный
изменения
С 21-го 18 UTC до 21-го 20 UTC
Ветер 10 Узел от северо-северо-восточный

TAF: LZIB 202300Z 2100/2200 28005KT CAVOK BECMG 2108/2110 01006KT BECMG 2118/2120 03010KT

Метеонаблюдения и прогнозы для более 4000 аэропортов (сводки METAR и TAF).

Имеющиеся станции представлены на карте желтыми и красными точками.

Чтобы увидеть название станции, наведите на нее мышь.

Затем щелкните, чтобы увидеть метеонаблюдения и метеопрогнозы.

Управление картой: чтобы увеличить масштаб, щелкните зеленые кнопки с черным крестиком; чтобы уменьшить масштаб, щелкните зеленую кнопку с тире; для просмотра соседних карт щелкайте зеленые стрелки.


METAR-TAF: